sensor_id;sensor_type;location;lat;lon;timestamp;pressure;altitude;pressure_sealevel;temperature;humidity
67818;BME280;54614;47.576;7.524;2023-02-22T00:01:31;98400.63;;;24.57;32.61
67818;BME280;54614;47.576;7.524;2023-02-22T00:04:06;98410.34;;;24.58;33.04
67818;BME280;54614;47.576;7.524;2023-02-22T00:06:32;98400.63;;;24.57;33.07
67818;BME280;54614;47.576;7.524;2023-02-22T00:08:59;98414.28;;;24.55;32.78
67818;BME280;54614;47.576;7.524;2023-02-22T00:11:26;98412.41;;;24.56;33.19
67818;BME280;54614;47.576;7.524;2023-02-22T00:13:53;98410.97;;;24.53;33.19
67818;BME280;54614;47.576;7.524;2023-02-22T00:16:23;98404.56;;;24.54;33.05
67818;BME280;54614;47.576;7.524;2023-02-22T00:18:50;98407.25;;;24.54;32.90
67818;BME280;54614;47.576;7.524;2023-02-22T00:21:16;98409.13;;;24.54;33.20
67818;BME280;54614;47.576;7.524;2023-02-22T00:23:45;98409.13;;;24.54;33.02
67818;BME280;54614;47.576;7.524;2023-02-22T00:26:18;98410.97;;;24.53;33.23
67818;BME280;54614;47.576;7.524;2023-02-22T00:28:51;98408.28;;;24.53;33.25
67818;BME280;54614;47.576;7.524;2023-02-22T00:31:18;98405.81;;;24.52;33.00
67818;BME280;54614;47.576;7.524;2023-02-22T00:33:44;98393.19;;;24.52;33.54
67818;BME280;54614;47.576;7.524;2023-02-22T00:36:12;98402.31;;;24.51;33.33
67818;BME280;54614;47.576;7.524;2023-02-22T00:38:39;98393.41;;;24.51;33.03
67818;BME280;54614;47.576;7.524;2023-02-22T00:41:05;98389.91;;;24.50;33.30
67818;BME280;54614;47.576;7.524;2023-02-22T00:43:32;98398.78;;;24.51;33.26
67818;BME280;54614;47.576;7.524;2023-02-22T00:45:58;98395.06;;;24.52;33.07
67818;BME280;54614;47.576;7.524;2023-02-22T00:48:24;98392.59;;;24.50;33.41
67818;BME280;54614;47.576;7.524;2023-02-22T00:50:50;98392.59;;;24.50;33.36
67818;BME280;54614;47.576;7.524;2023-02-22T00:53:21;98397.97;;;24.50;33.20
67818;BME280;54614;47.576;7.524;2023-02-22T00:55:47;98388.25;;;24.49;33.07
67818;BME280;54614;47.576;7.524;2023-02-22T00:58:13;98386.59;;;24.48;33.19
67818;BME280;54614;47.576;7.524;2023-02-22T01:00:41;98389.50;;;24.47;33.37
67818;BME280;54614;47.576;7.524;2023-02-22T01:03:10;98384.97;;;24.47;33.23
67818;BME280;54614;47.576;7.524;2023-02-22T01:05:36;98393.03;;;24.47;33.37
67818;BME280;54614;47.576;7.524;2023-02-22T01:08:04;98396.53;;;24.48;33.00
67818;BME280;54614;47.576;7.524;2023-02-22T01:10:34;98394.06;;;24.46;33.19
67818;BME280;54614;47.576;7.524;2023-02-22T01:13:00;98392.19;;;24.47;33.36
67818;BME280;54614;47.576;7.524;2023-02-22T01:15:29;98390.56;;;24.46;32.98
67818;BME280;54614;47.576;7.524;2023-02-22T01:17:57;98391.38;;;24.46;33.40
67818;BME280;54614;47.576;7.524;2023-02-22T01:20:26;98387.25;;;24.43;33.45
67818;BME280;54614;47.576;7.524;2023-02-22T01:22:55;98386.00;;;24.46;33.27
67818;BME280;54614;47.576;7.524;2023-02-22T01:25:26;98389.94;;;24.43;33.27
67818;BME280;54614;47.576;7.524;2023-02-22T01:27:53;98378.38;;;24.43;33.14
67818;BME280;54614;47.576;7.524;2023-02-22T01:30:23;98378.97;;;24.45;33.12
67818;BME280;54614;47.576;7.524;2023-02-22T01:32:49;98379.19;;;24.43;33.16
67818;BME280;54614;47.576;7.524;2023-02-22T01:35:20;98381.88;;;24.43;33.42
67818;BME280;54614;47.576;7.524;2023-02-22T01:37:47;98373.19;;;24.41;33.18
67818;BME280;54614;47.576;7.524;2023-02-22T01:40:27;98370.50;;;24.41;33.15
67818;BME280;54614;47.576;7.524;2023-02-22T01:42:57;98373.41;;;24.40;33.27
67818;BME280;54614;47.576;7.524;2023-02-22T01:51:45;98372.38;;;24.41;33.26
67818;BME280;54614;47.576;7.524;2023-02-22T01:54:22;98371.16;;;24.37;33.49
67818;BME280;54614;47.576;7.524;2023-02-22T01:57:17;98364.75;;;24.38;33.31
67818;BME280;54614;47.576;7.524;2023-02-22T01:59:51;98362.06;;;24.38;33.46
67818;BME280;54614;47.576;7.524;2023-02-22T02:02:18;98364.75;;;24.38;33.34
67818;BME280;54614;47.576;7.524;2023-02-22T02:04:47;98354.22;;;24.36;33.39
67818;BME280;54614;47.576;7.524;2023-02-22T02:07:18;98357.72;;;24.37;33.46
67818;BME280;54614;47.576;7.524;2023-02-22T02:10:08;98356.91;;;24.36;33.10
67818;BME280;54614;47.576;7.524;2023-02-22T02:12:47;98352.56;;;24.35;33.36
67818;BME280;54614;47.576;7.524;2023-02-22T02:15:32;98348.22;;;24.34;33.33
67818;BME280;54614;47.576;7.524;2023-02-22T02:18:11;98346.56;;;24.33;33.10
67818;BME280;54614;47.576;7.524;2023-02-22T02:23:55;98343.88;;;24.33;33.21
67818;BME280;54614;47.576;7.524;2023-02-22T02:35:38;98338.94;;;24.30;33.07
67818;BME280;54614;47.576;7.524;2023-02-22T02:38:19;98334.59;;;24.29;33.11
67818;BME280;54614;47.576;7.524;2023-02-22T02:46:09;98325.72;;;24.29;33.11
67818;BME280;54614;47.576;7.524;2023-02-22T02:48:42;98329.22;;;24.29;33.26
67818;BME280;54614;47.576;7.524;2023-02-22T02:51:12;98321.38;;;24.28;33.04
67818;BME280;54614;47.576;7.524;2023-02-22T02:53:45;98326.75;;;24.28;33.11
67818;BME280;54614;47.576;7.524;2023-02-22T02:56:12;98325.09;;;24.27;33.37
67818;BME280;54614;47.576;7.524;2023-02-22T02:58:50;98314.34;;;24.27;33.08
67818;BME280;54614;47.576;7.524;2023-02-22T03:01:46;98324.28;;;24.26;33.12
67818;BME280;54614;47.576;7.524;2023-02-22T03:16:19;98315.59;;;24.24;33.28
67818;BME280;54614;47.576;7.524;2023-02-22T03:22:25;98311.25;;;24.23;33.31
67818;BME280;54614;47.576;7.524;2023-02-22T03:25:02;98323.03;;;24.22;33.38
67818;BME280;54614;47.576;7.524;2023-02-22T03:27:50;98312.28;;;24.22;33.33
67818;BME280;54614;47.576;7.524;2023-02-22T03:30:41;98310.63;;;24.21;33.25
67818;BME280;54614;47.576;7.524;2023-02-22T03:33:16;98316.00;;;24.21;33.08
67818;BME280;54614;47.576;7.524;2023-02-22T03:35:57;98315.41;;;24.19;33.42
67818;BME280;54614;47.576;7.524;2023-02-22T03:38:31;98313.53;;;24.20;33.04
67818;BME280;54614;47.576;7.524;2023-02-22T03:41:01;98308.16;;;24.20;33.24
67818;BME280;54614;47.576;7.524;2023-02-22T03:43:48;98302.78;;;24.20;33.10
67818;BME280;54614;47.576;7.524;2023-02-22T03:46:16;98302.19;;;24.18;33.40
67818;BME280;54614;47.576;7.524;2023-02-22T03:48:53;98312.72;;;24.19;33.29
67818;BME280;54614;47.576;7.524;2023-02-22T03:51:22;98301.97;;;24.19;33.29
67818;BME280;54614;47.576;7.524;2023-02-22T03:53:49;98305.47;;;24.20;33.10
67818;BME280;54614;47.576;7.524;2023-02-22T03:56:29;98305.69;;;24.18;33.29
67818;BME280;54614;47.576;7.524;2023-02-22T03:59:04;98299.50;;;24.18;33.12
67818;BME280;54614;47.576;7.524;2023-02-22T04:01:30;98306.72;;;24.17;33.28
67818;BME280;54614;47.576;7.524;2023-02-22T04:03:56;98305.91;;;24.17;33.42
67818;BME280;54614;47.576;7.524;2023-02-22T04:06:22;98305.09;;;24.16;33.20
67818;BME280;54614;47.576;7.524;2023-02-22T04:08:48;98303.44;;;24.15;33.18
67818;BME280;54614;47.576;7.524;2023-02-22T04:11:14;98296.41;;;24.14;32.99
67818;BME280;54614;47.576;7.524;2023-02-22T04:13:39;98300.75;;;24.15;33.00
67818;BME280;54614;47.576;7.524;2023-02-22T04:16:05;98303.44;;;24.15;33.16
67818;BME280;54614;47.576;7.524;2023-02-22T04:18:34;98301.78;;;24.14;33.03
67818;BME280;54614;47.576;7.524;2023-02-22T04:21:00;98304.47;;;24.14;33.31
67818;BME280;54614;47.576;7.524;2023-02-22T04:23:27;98300.97;;;24.14;33.27
67818;BME280;54614;47.576;7.524;2023-02-22T04:25:53;98298.28;;;24.14;33.16
67818;BME280;54614;47.576;7.524;2023-02-22T04:28:19;98302.84;;;24.13;33.32
67818;BME280;54614;47.576;7.524;2023-02-22T04:30:45;98299.31;;;24.13;33.30
67818;BME280;54614;47.576;7.524;2023-02-22T04:33:12;98298.94;;;24.09;33.25
67818;BME280;54614;47.576;7.524;2023-02-22T04:35:38;98301.41;;;24.10;33.17
67818;BME280;54614;47.576;7.524;2023-02-22T04:38:04;98296.84;;;24.11;33.21
67818;BME280;54614;47.576;7.524;2023-02-22T04:40:30;98287.13;;;24.10;33.04
67818;BME280;54614;47.576;7.524;2023-02-22T04:42:56;98296.03;;;24.10;33.05
67818;BME280;54614;47.576;7.524;2023-02-22T04:45:22;98295.19;;;24.10;33.11
67818;BME280;54614;47.576;7.524;2023-02-22T04:47:47;98292.72;;;24.08;32.97
67818;BME280;54614;47.576;7.524;2023-02-22T04:50:15;98291.09;;;24.07;33.34
67818;BME280;54614;47.576;7.524;2023-02-22T04:52:41;98284.06;;;24.06;33.00
67818;BME280;54614;47.576;7.524;2023-02-22T04:55:07;98290.25;;;24.07;33.41
67818;BME280;54614;47.576;7.524;2023-02-22T04:57:34;98293.97;;;24.06;33.18
67818;BME280;54614;47.576;7.524;2023-02-22T05:00:00;98295.63;;;24.07;33.06
67818;BME280;54614;47.576;7.524;2023-02-22T05:02:26;98289.44;;;24.06;33.29
67818;BME280;54614;47.576;7.524;2023-02-22T05:04:52;98292.94;;;24.07;33.00
67818;BME280;54614;47.576;7.524;2023-02-22T05:07:18;98285.91;;;24.06;33.05
67818;BME280;54614;47.576;7.524;2023-02-22T05:09:44;98291.50;;;24.04;33.24
67818;BME280;54614;47.576;7.524;2023-02-22T05:12:09;98292.34;;;24.05;33.10
67818;BME280;54614;47.576;7.524;2023-02-22T05:14:35;98298.75;;;24.04;32.83
67818;BME280;54614;47.576;7.524;2023-02-22T05:17:02;98297.94;;;24.03;33.01
67818;BME280;54614;47.576;7.524;2023-02-22T05:19:28;98297.94;;;24.03;32.97
67818;BME280;54614;47.576;7.524;2023-02-22T05:21:54;98290.69;;;24.04;33.25
67818;BME280;54614;47.576;7.524;2023-02-22T05:24:21;98289.03;;;24.03;32.62
67818;BME280;54614;47.576;7.524;2023-02-22T05:26:47;98292.75;;;24.02;33.09
67818;BME280;54614;47.576;7.524;2023-02-22T05:29:16;98295.66;;;24.00;32.86
67818;BME280;54614;47.576;7.524;2023-02-22T05:31:42;98282.03;;;24.02;32.89
67818;BME280;54614;47.576;7.524;2023-02-22T05:34:08;98284.91;;;24.00;32.54
67818;BME280;54614;47.576;7.524;2023-02-22T05:36:33;98287.38;;;24.02;32.46
67818;BME280;54614;47.576;7.524;2023-02-22T05:38:59;98285.75;;;24.01;32.59
67818;BME280;54614;47.576;7.524;2023-02-22T05:41:25;98287.59;;;24.00;32.55
67818;BME280;54614;47.576;7.524;2023-02-22T05:43:51;98294.84;;;24.00;32.19
67818;BME280;54614;47.576;7.524;2023-02-22T05:46:17;98293.19;;;23.99;32.28
67818;BME280;54614;47.576;7.524;2023-02-22T05:48:43;98290.28;;;24.00;32.56
67818;BME280;54614;47.576;7.524;2023-02-22T05:51:09;98296.91;;;23.98;32.40
67818;BME280;54614;47.576;7.524;2023-02-22T05:53:38;98287.22;;;23.97;31.97
67818;BME280;54614;47.576;7.524;2023-02-22T05:56:04;98282.06;;;23.95;32.32
67818;BME280;54614;47.576;7.524;2023-02-22T05:58:30;98288.47;;;23.94;32.18
67818;BME280;54614;47.576;7.524;2023-02-22T06:00:56;98284.97;;;23.94;32.45
67818;BME280;54614;47.576;7.524;2023-02-22T06:03:21;98286.59;;;23.95;32.54
67818;BME280;54614;47.576;7.524;2023-02-22T06:05:47;98286.59;;;23.95;32.56
67818;BME280;54614;47.576;7.524;2023-02-22T06:08:14;98286.59;;;23.95;32.23
67818;BME280;54614;47.576;7.524;2023-02-22T06:10:39;98280.19;;;23.96;32.27
67818;BME280;54614;47.576;7.524;2023-02-22T06:13:06;98278.53;;;23.95;32.39
67818;BME280;54614;47.576;7.524;2023-02-22T06:15:32;98277.72;;;23.94;32.27
67818;BME280;54614;47.576;7.524;2023-02-22T06:17:59;98283.31;;;23.93;32.37
67818;BME280;54614;47.576;7.524;2023-02-22T06:20:27;98281.22;;;23.95;32.81
67818;BME280;54614;47.576;7.524;2023-02-22T06:22:56;98288.47;;;23.94;32.64
67818;BME280;54614;47.576;7.524;2023-02-22T06:25:27;98286.00;;;23.93;32.50
67818;BME280;54614;47.576;7.524;2023-02-22T06:27:56;98289.94;;;23.90;32.85
67818;BME280;54614;47.576;7.524;2023-02-22T06:30:25;98288.06;;;23.91;32.91
67818;BME280;54614;47.576;7.524;2023-02-22T06:32:51;98289.94;;;23.90;33.08
67818;BME280;54614;47.576;7.524;2023-02-22T06:35:18;98289.09;;;23.90;33.28
67818;BME280;54614;47.576;7.524;2023-02-22T06:37:44;98296.94;;;23.91;33.14
67818;BME280;54614;47.576;7.524;2023-02-22T06:40:11;98293.22;;;23.92;32.88
67818;BME280;54614;47.576;7.524;2023-02-22T06:42:38;98296.75;;;23.93;33.24
67818;BME280;54614;47.576;7.524;2023-02-22T06:45:05;98298.59;;;23.92;33.02
67818;BME280;54614;47.576;7.524;2023-02-22T06:47:31;98301.50;;;23.91;32.85
67818;BME280;54614;47.576;7.524;2023-02-22T06:49:58;98313.91;;;23.92;33.43
67818;BME280;54614;47.576;7.524;2023-02-22T06:52:25;98311.63;;;23.89;33.19
67818;BME280;54614;47.576;7.524;2023-02-22T06:54:51;98318.25;;;23.86;33.01
67818;BME280;54614;47.576;7.524;2023-02-22T06:57:18;98316.19;;;23.88;32.83
67818;BME280;54614;47.576;7.524;2023-02-22T06:59:44;98313.50;;;23.88;32.81
67818;BME280;54614;47.576;7.524;2023-02-22T07:02:11;98318.03;;;23.88;32.89
67818;BME280;54614;47.576;7.524;2023-02-22T07:04:37;98313.72;;;23.87;33.07
67818;BME280;54614;47.576;7.524;2023-02-22T07:07:04;98314.53;;;23.87;32.23
67818;BME280;54614;47.576;7.524;2023-02-22T07:09:29;98315.38;;;23.88;32.78
67818;BME280;54614;47.576;7.524;2023-02-22T07:11:55;98316.22;;;23.82;33.76
67818;BME280;54614;47.576;7.524;2023-02-22T07:14:22;98319.31;;;23.78;35.33
67818;BME280;54614;47.576;7.524;2023-02-22T07:16:47;98325.50;;;23.86;34.72
67818;BME280;54614;47.576;7.524;2023-02-22T07:19:13;98325.28;;;23.87;34.57
67818;BME280;54614;47.576;7.524;2023-02-22T07:21:39;98328.78;;;23.88;34.76
67818;BME280;54614;47.576;7.524;2023-02-22T07:24:05;98328.38;;;23.84;34.49
67818;BME280;54614;47.576;7.524;2023-02-22T07:26:39;98333.97;;;23.83;34.42
67818;BME280;54614;47.576;7.524;2023-02-22T07:29:05;98331.28;;;23.83;34.86
67818;BME280;54614;47.576;7.524;2023-02-22T07:31:38;98331.47;;;23.88;34.52
67818;BME280;54614;47.576;7.524;2023-02-22T07:34:04;98330.22;;;23.90;33.79
67818;BME280;54614;47.576;7.524;2023-02-22T07:36:30;98328.97;;;23.93;33.64
67818;BME280;54614;47.576;7.524;2023-02-22T07:38:55;98331.88;;;23.91;33.53
67818;BME280;54614;47.576;7.524;2023-02-22T07:41:21;98337.25;;;23.91;33.44
67818;BME280;54614;47.576;7.524;2023-02-22T07:43:47;98335.38;;;23.92;33.15
67818;BME280;54614;47.576;7.524;2023-02-22T07:46:13;98336.41;;;23.91;33.37
67818;BME280;54614;47.576;7.524;2023-02-22T07:48:40;98332.91;;;23.90;33.07
67818;BME280;54614;47.576;7.524;2023-02-22T07:51:06;98334.78;;;23.90;32.99
67818;BME280;54614;47.576;7.524;2023-02-22T07:53:32;98330.44;;;23.89;33.16
67818;BME280;54614;47.576;7.524;2023-02-22T07:56:01;98340.16;;;23.90;33.35
67818;BME280;54614;47.576;7.524;2023-02-22T07:58:28;98333.94;;;23.89;33.25
67818;BME280;54614;47.576;7.524;2023-02-22T08:00:55;98332.09;;;23.90;33.16
67818;BME280;54614;47.576;7.524;2023-02-22T08:03:24;98333.75;;;23.91;32.97
67818;BME280;54614;47.576;7.524;2023-02-22T08:05:56;98334.56;;;23.91;32.93
67818;BME280;54614;47.576;7.524;2023-02-22T08:08:23;98331.66;;;23.93;32.92
67818;BME280;54614;47.576;7.524;2023-02-22T08:10:50;98338.47;;;23.95;32.92
67818;BME280;54614;47.576;7.524;2023-02-22T08:13:17;98325.84;;;23.96;33.00
67818;BME280;54614;47.576;7.524;2023-02-22T08:15:43;98332.66;;;23.98;32.91
67818;BME280;54614;47.576;7.524;2023-02-22T08:18:13;98336.19;;;23.99;32.69
67818;BME280;54614;47.576;7.524;2023-02-22T08:20:42;98335.13;;;24.00;33.04
67818;BME280;54614;47.576;7.524;2023-02-22T08:23:10;98330.59;;;24.00;32.55
67818;BME280;54614;47.576;7.524;2023-02-22T08:25:36;98331.81;;;24.04;32.76
67818;BME280;54614;47.576;7.524;2023-02-22T08:28:06;98333.47;;;24.05;32.51
67818;BME280;54614;47.576;7.524;2023-02-22T08:30:36;98334.91;;;24.08;32.60
67818;BME280;54614;47.576;7.524;2023-02-22T08:33:03;98340.28;;;24.08;32.53
67818;BME280;54614;47.576;7.524;2023-02-22T08:35:31;98336.53;;;24.09;32.47
67818;BME280;54614;47.576;7.524;2023-02-22T08:38:04;98337.75;;;24.13;32.36
67818;BME280;54614;47.576;7.524;2023-02-22T08:40:34;98345.81;;;24.13;32.67
67818;BME280;54614;47.576;7.524;2023-02-22T08:43:02;98344.56;;;24.16;32.61
67818;BME280;54614;47.576;7.524;2023-02-22T08:45:28;98353.25;;;24.18;32.66
67818;BME280;54614;47.576;7.524;2023-02-22T08:47:54;98345.19;;;24.18;32.31
67818;BME280;54614;47.576;7.524;2023-02-22T08:50:27;98351.38;;;24.18;32.55
67818;BME280;54614;47.576;7.524;2023-02-22T08:52:56;98344.34;;;24.17;32.48
67818;BME280;54614;47.576;7.524;2023-02-22T08:55:30;98346.00;;;24.18;32.72
67818;BME280;54614;47.576;7.524;2023-02-22T08:57:58;98347.66;;;24.19;32.63
67818;BME280;54614;47.576;7.524;2023-02-22T09:00:25;98340.19;;;24.21;32.37
67818;BME280;54614;47.576;7.524;2023-02-22T09:02:54;98337.50;;;24.21;32.63
67818;BME280;54614;47.576;7.524;2023-02-22T09:05:21;98336.47;;;24.22;32.73
67818;BME280;54614;47.576;7.524;2023-02-22T09:07:47;98332.97;;;24.22;32.29
67818;BME280;54614;47.576;7.524;2023-02-22T09:10:21;98338.13;;;24.23;32.76
67818;BME280;54614;47.576;7.524;2023-02-22T09:12:53;98331.50;;;24.26;32.48
67818;BME280;54614;47.576;7.524;2023-02-22T09:15:24;98334.00;;;24.27;32.43
67818;BME280;54614;47.576;7.524;2023-02-22T09:17:50;98342.25;;;24.32;32.52
67818;BME280;54614;47.576;7.524;2023-02-22T09:20:19;98334.19;;;24.32;32.34
67818;BME280;54614;47.576;7.524;2023-02-22T09:22:47;98335.00;;;24.33;32.24
67818;BME280;54614;47.576;7.524;2023-02-22T09:25:14;98336.03;;;24.32;32.34
67818;BME280;54614;47.576;7.524;2023-02-22T09:27:40;98336.88;;;24.32;32.32
67818;BME280;54614;47.576;7.524;2023-02-22T09:30:16;98336.47;;;24.29;32.77
67818;BME280;54614;47.576;7.524;2023-02-22T09:32:43;98327.81;;;24.27;32.61
67818;BME280;54614;47.576;7.524;2023-02-22T09:35:08;98326.13;;;24.26;32.89
67818;BME280;54614;47.576;7.524;2023-02-22T09:37:34;98326.13;;;24.26;32.52
67818;BME280;54614;47.576;7.524;2023-02-22T09:40:00;98324.28;;;24.26;32.89
67818;BME280;54614;47.576;7.524;2023-02-22T09:42:44;98329.66;;;24.26;32.74
67818;BME280;54614;47.576;7.524;2023-02-22T09:45:27;98325.50;;;24.24;32.63
67818;BME280;54614;47.576;7.524;2023-02-22T09:47:59;98319.31;;;24.23;32.92
67818;BME280;54614;47.576;7.524;2023-02-22T09:50:38;98328.19;;;24.24;33.01
67818;BME280;54614;47.576;7.524;2023-02-22T09:53:31;98321.19;;;24.23;33.18
67818;BME280;54614;47.576;7.524;2023-02-22T09:56:11;98322.81;;;24.24;33.03
67818;BME280;54614;47.576;7.524;2023-02-22T09:58:48;98316.63;;;24.23;33.06
67818;BME280;54614;47.576;7.524;2023-02-22T10:01:35;98313.53;;;24.26;33.12
67818;BME280;54614;47.576;7.524;2023-02-22T10:09:37;98315.16;;;24.34;33.15
67818;BME280;54614;47.576;7.524;2023-02-22T10:12:30;98308.72;;;24.35;33.04
67818;BME280;54614;47.576;7.524;2023-02-22T10:15:44;98305.81;;;24.36;33.04
67818;BME280;54614;47.576;7.524;2023-02-22T10:18:49;98308.28;;;24.38;33.07
67818;BME280;54614;47.576;7.524;2023-02-22T10:26:59;98305.59;;;24.38;33.37
67818;BME280;54614;47.576;7.524;2023-02-22T10:29:41;98302.91;;;24.38;33.17
67818;BME280;54614;47.576;7.524;2023-02-22T10:32:19;98298.38;;;24.38;33.26
67818;BME280;54614;47.576;7.524;2023-02-22T10:34:51;98301.25;;;24.37;33.17
67818;BME280;54614;47.576;7.524;2023-02-22T10:37:31;98296.72;;;24.37;33.49
67818;BME280;54614;47.576;7.524;2023-02-22T10:40:24;98303.13;;;24.36;33.17
67818;BME280;54614;47.576;7.524;2023-02-22T10:43:08;98302.69;;;24.39;33.33
67818;BME280;54614;47.576;7.524;2023-02-22T10:45:36;98294.19;;;24.42;33.43
67818;BME280;54614;47.576;7.524;2023-02-22T10:48:14;98295.19;;;24.48;33.29
67818;BME280;54614;47.576;7.524;2023-02-22T10:50:44;98291.69;;;24.48;33.25
67818;BME280;54614;47.576;7.524;2023-02-22T10:53:12;98292.28;;;24.50;33.15
67818;BME280;54614;47.576;7.524;2023-02-22T10:56:20;98286.69;;;24.51;33.34
67818;BME280;54614;47.576;7.524;2023-02-22T10:59:01;98285.88;;;24.51;33.36
67818;BME280;54614;47.576;7.524;2023-02-22T11:06:42;98281.16;;;24.46;33.48
67818;BME280;54614;47.576;7.524;2023-02-22T11:09:19;98276.59;;;24.47;33.30
67818;BME280;54614;47.576;7.524;2023-02-22T11:12:07;98267.47;;;24.48;33.47
67818;BME280;54614;47.576;7.524;2023-02-22T11:14:33;98266.44;;;24.49;33.41
67818;BME280;54614;47.576;7.524;2023-02-22T11:17:05;98277.19;;;24.49;33.59
67818;BME280;54614;47.576;7.524;2023-02-22T11:19:33;98276.16;;;24.50;33.76
67818;BME280;54614;47.576;7.524;2023-02-22T11:22:12;98266.44;;;24.49;33.81
67818;BME280;54614;47.576;7.524;2023-02-22T11:24:54;98270.78;;;24.50;33.33
67818;BME280;54614;47.576;7.524;2023-02-22T11:27:43;98262.72;;;24.50;33.58
67818;BME280;54614;47.576;7.524;2023-02-22T11:30:33;98263.97;;;24.47;33.38
67818;BME280;54614;47.576;7.524;2023-02-22T11:35:52;98262.31;;;24.46;33.10
67818;BME280;54614;47.576;7.524;2023-02-22T11:38:32;98261.28;;;24.47;33.15
67818;BME280;54614;47.576;7.524;2023-02-22T11:41:36;98255.75;;;24.42;33.39
67818;BME280;54614;47.576;7.524;2023-02-22T11:44:13;98255.97;;;24.40;33.25
67818;BME280;54614;47.576;7.524;2023-02-22T11:46:46;98253.88;;;24.42;33.15
67818;BME280;54614;47.576;7.524;2023-02-22T11:49:13;98251.19;;;24.42;33.22
67818;BME280;54614;47.576;7.524;2023-02-22T12:00:33;98248.72;;;24.41;32.93
67818;BME280;54614;47.576;7.524;2023-02-22T12:03:39;98246.63;;;24.43;33.20
67818;BME280;54614;47.576;7.524;2023-02-22T12:06:10;98246.19;;;24.46;33.04
67818;BME280;54614;47.576;7.524;2023-02-22T12:12:16;98240.94;;;24.58;32.76
67818;BME280;54614;47.576;7.524;2023-02-22T12:17:24;98242.53;;;24.65;32.87
67818;BME280;54614;47.576;7.524;2023-02-22T12:19:59;98237.34;;;24.64;32.74
67818;BME280;54614;47.576;7.524;2023-02-22T12:22:32;98241.69;;;24.65;32.91
67818;BME280;54614;47.576;7.524;2023-02-22T12:25:12;98241.69;;;24.65;32.66
67818;BME280;54614;47.576;7.524;2023-02-22T12:28:04;98248.34;;;24.62;32.96
67818;BME280;54614;47.576;7.524;2023-02-22T12:30:42;98240.50;;;24.61;33.10
67818;BME280;54614;47.576;7.524;2023-02-22T12:33:26;98242.78;;;24.57;32.81
67818;BME280;54614;47.576;7.524;2023-02-22T12:35:57;98249.22;;;24.56;32.91
67818;BME280;54614;47.576;7.524;2023-02-22T12:38:53;98240.31;;;24.56;33.16
67818;BME280;54614;47.576;7.524;2023-02-22T12:44:11;98243.22;;;24.54;33.41
67818;BME280;54614;47.576;7.524;2023-02-22T12:46:48;98237.84;;;24.54;33.19
67818;BME280;54614;47.576;7.524;2023-02-22T12:49:35;98233.53;;;24.53;33.25
67818;BME280;54614;47.576;7.524;2023-02-22T12:55:14;98232.47;;;24.54;33.05
67818;BME280;54614;47.576;7.524;2023-02-22T12:57:55;98230.22;;;24.51;33.00
67818;BME280;54614;47.576;7.524;2023-02-22T13:00:40;98227.53;;;24.51;33.27
67818;BME280;54614;47.576;7.524;2023-02-22T13:17:53;98231.72;;;24.47;33.09
67818;BME280;54614;47.576;7.524;2023-02-22T13:20:44;98224.69;;;24.46;33.54
67818;BME280;54614;47.576;7.524;2023-02-22T13:24:04;98229.63;;;24.49;33.40
67818;BME280;54614;47.576;7.524;2023-02-22T13:26:38;98226.34;;;24.47;33.29
67818;BME280;54614;47.576;7.524;2023-02-22T13:29:43;98220.34;;;24.45;33.49
67818;BME280;54614;47.576;7.524;2023-02-22T13:41:05;98214.59;;;24.41;33.30
67818;BME280;54614;47.576;7.524;2023-02-22T13:51:57;98218.97;;;24.36;33.70
67818;BME280;54614;47.576;7.524;2023-02-22T13:54:33;98215.09;;;24.32;33.82
67818;BME280;54614;47.576;7.524;2023-02-22T13:57:03;98211.56;;;24.31;33.65
67818;BME280;54614;47.576;7.524;2023-02-22T13:59:41;98207.47;;;24.29;34.00
67818;BME280;54614;47.576;7.524;2023-02-22T14:11:38;98207.47;;;24.29;34.17
67818;BME280;54614;47.576;7.524;2023-02-22T14:16:30;98208.50;;;24.28;33.77
67818;BME280;54614;47.576;7.524;2023-02-22T14:19:12;98215.94;;;24.26;33.92
67818;BME280;54614;47.576;7.524;2023-02-22T14:24:23;98212.41;;;24.25;33.99
67818;BME280;54614;47.576;7.524;2023-02-22T14:27:01;98213.06;;;24.27;34.12
67818;BME280;54614;47.576;7.524;2023-02-22T14:29:29;98209.72;;;24.25;33.91
67818;BME280;54614;47.576;7.524;2023-02-22T14:32:06;98215.94;;;24.26;33.90
67818;BME280;54614;47.576;7.524;2023-02-22T14:34:59;98208.91;;;24.25;34.07
67818;BME280;54614;47.576;7.524;2023-02-22T14:37:35;98207.47;;;24.22;34.21
67818;BME280;54614;47.576;7.524;2023-02-22T14:43:03;98210.97;;;24.23;34.09
67818;BME280;54614;47.576;7.524;2023-02-22T14:45:33;98210.38;;;24.21;33.90
67818;BME280;54614;47.576;7.524;2023-02-22T14:48:35;98210.97;;;24.23;34.12
67818;BME280;54614;47.576;7.524;2023-02-22T14:56:45;98204.41;;;24.19;34.31
67818;BME280;54614;47.576;7.524;2023-02-22T14:59:23;98204.19;;;24.20;34.18
67818;BME280;54614;47.576;7.524;2023-02-22T15:02:12;98204.19;;;24.20;34.29
67818;BME280;54614;47.576;7.524;2023-02-22T15:04:38;98196.34;;;24.19;34.23
67818;BME280;54614;47.576;7.524;2023-02-22T15:07:28;98200.28;;;24.16;34.01
67818;BME280;54614;47.576;7.524;2023-02-22T15:10:27;98202.16;;;24.16;34.40
67818;BME280;54614;47.576;7.524;2023-02-22T15:13:03;98202.16;;;24.16;34.43
67818;BME280;54614;47.576;7.524;2023-02-22T15:15:40;98205.66;;;24.16;34.04
67818;BME280;54614;47.576;7.524;2023-02-22T15:21:14;98205.88;;;24.15;34.29
67818;BME280;54614;47.576;7.524;2023-02-22T15:23:58;98204.00;;;24.15;34.40
67818;BME280;54614;47.576;7.524;2023-02-22T15:26:39;98205.06;;;24.14;34.53
67818;BME280;54614;47.576;7.524;2023-02-22T15:29:28;98202.16;;;24.16;34.21
67818;BME280;54614;47.576;7.524;2023-02-22T15:31:56;98199.06;;;24.12;34.36
67818;BME280;54614;47.576;7.524;2023-02-22T15:34:27;98196.59;;;24.10;34.52
67818;BME280;54614;47.576;7.524;2023-02-22T15:36:56;98203.03;;;24.09;34.46
67818;BME280;54614;47.576;7.524;2023-02-22T15:39:31;98208.41;;;24.09;34.28
67818;BME280;54614;47.576;7.524;2023-02-22T15:44:40;98208.63;;;24.08;34.85
67818;BME280;54614;47.576;7.524;2023-02-22T15:47:36;98208.63;;;24.08;34.87